Time;durP1;ratioP1;P1;durP2;ratioP2;P2;SDS_P1;SDS_P2;PMS_P1;PMS_P2;Temp;Humidity;BMP_temperature;BMP_pressure;BME280_temperature;BME280_humidity;BME280_pressure;Samples;Min_cycle;Max_cycle;Signal;HPM_P1;HPM_P2
2022/03/02 00:00:44;;;;;;;22.67;7.60;;;;;;;3.58;31.52;100554.06;5062276;28;20044;-77
2022/03/02 00:03:10;;;;;;;21.67;8.07;;;;;;;3.47;31.75;100555.53;5083237;28;20050;-78
2022/03/02 00:05:36;;;;;;;19.00;6.90;;;;;;;3.51;31.66;100550.13;5070189;28;20036;-79
2022/03/02 00:08:06;;;;;;;22.43;7.03;;;;;;;3.75;31.94;100557.38;5070061;28;20087;-78
2022/03/02 00:10:32;;;;;;;33.57;7.63;;;;;;;3.54;31.85;100556.03;5084632;28;20138;-78
2022/03/02 00:12:57;;;;;;;20.00;7.33;;;;;;;3.53;31.90;100553.50;5067065;28;20048;-78
2022/03/02 00:15:24;;;;;;;24.70;6.90;;;;;;;3.64;31.85;100557.19;5066408;28;20118;-77
2022/03/02 00:17:51;;;;;;;22.20;7.13;;;;;;;3.65;31.78;100555.38;5099824;28;20043;-77
2022/03/02 00:20:17;;;;;;;23.33;8.13;;;;;;;3.50;32.05;100544.03;5114231;28;20043;-78
2022/03/02 00:22:44;;;;;;;25.33;7.60;;;;;;;3.34;31.84;100523.06;5062568;28;20035;-77
2022/03/02 00:25:10;;;;;;;24.80;7.87;;;;;;;3.72;31.65;100554.09;5078901;28;20051;-78
2022/03/02 00:27:37;;;;;;;25.57;8.60;;;;;;;3.58;31.56;100554.91;5077834;28;20069;-77
2022/03/02 00:30:05;;;;;;;25.97;8.03;;;;;;;3.71;31.70;100547.97;5061755;28;20502;-78
2022/03/02 00:32:31;;;;;;;20.63;8.63;;;;;;;3.61;31.59;100546.00;5079365;28;20040;-77
2022/03/02 00:34:57;;;;;;;21.53;8.00;;;;;;;3.58;31.56;100552.28;5046137;28;20039;-78
2022/03/02 00:37:22;;;;;;;28.97;10.03;;;;;;;3.52;31.98;100544.78;5062429;28;20047;-77
2022/03/02 00:39:48;;;;;;;39.20;10.93;;;;;;;3.45;31.96;100536.41;5095374;28;20035;-76
2022/03/02 00:42:14;;;;;;;40.03;11.07;;;;;;;3.27;32.13;100527.00;5096131;28;20080;-78
2022/03/02 00:44:40;;;;;;;22.63;9.47;;;;;;;3.25;32.17;100534.13;5061254;28;20502;-77
2022/03/02 00:47:06;;;;;;;27.00;9.70;;;;;;;3.24;32.66;100539.47;5061094;28;20039;-78
2022/03/02 00:49:33;;;;;;;30.67;9.73;;;;;;;3.04;32.98;100518.78;5078397;28;20480;-77
2022/03/02 00:51:59;;;;;;;29.67;9.20;;;;;;;3.09;33.07;100528.06;5095751;28;20044;-77
2022/03/02 00:54:25;;;;;;;28.73;9.20;;;;;;;3.08;33.12;100528.16;5078511;28;20116;-77
2022/03/02 00:56:51;;;;;;;28.87;9.90;;;;;;;3.02;32.86;100524.13;5078177;28;20101;-75
2022/03/02 00:59:16;;;;;;;26.90;9.07;;;;;;;2.96;33.26;100527.13;5062600;28;20402;-77
2022/03/02 01:01:42;;;;;;;26.30;8.57;;;;;;;3.07;33.00;100529.97;5116690;28;20044;-77
2022/03/02 01:04:09;;;;;;;24.53;8.67;;;;;;;3.12;32.76;100529.69;5047559;28;20044;-77
2022/03/02 01:06:35;;;;;;;23.10;8.57;;;;;;;2.95;32.82;100493.09;5062927;28;20106;-77
2022/03/02 01:09:02;;;;;;;26.70;8.73;;;;;;;3.16;32.61;100523.31;5044637;28;20061;-77
2022/03/02 01:11:28;;;;;;;21.97;9.30;;;;;;;3.05;32.75;100526.56;5076926;28;20035;-77
2022/03/02 01:13:54;;;;;;;28.07;9.00;;;;;;;3.01;32.71;100522.41;5058592;28;20063;-78
2022/03/02 01:16:19;;;;;;;15.47;7.00;;;;;;;3.01;32.76;100517.16;5076129;28;20521;-76
2022/03/02 01:18:45;;;;;;;23.97;8.60;;;;;;;3.12;32.38;100516.56;5060160;28;20035;-77
2022/03/02 01:21:11;;;;;;;27.40;8.77;;;;;;;3.14;32.19;100522.56;5059548;28;20071;-77
2022/03/02 01:23:37;;;;;;;25.10;8.07;;;;;;;3.06;32.17;100523.00;5061249;28;20521;-77
2022/03/02 01:26:03;;;;;;;24.17;8.70;;;;;;;3.01;32.55;100506.66;5061363;28;20048;-77
2022/03/02 01:28:29;;;;;;;27.17;8.23;;;;;;;2.90;32.70;100506.47;5060974;28;20044;-77
2022/03/02 01:30:55;;;;;;;26.70;7.97;;;;;;;2.71;33.06;100471.75;5044207;28;20039;-77
2022/03/02 01:33:21;;;;;;;24.13;7.93;;;;;;;2.76;32.85;100479.34;5077545;28;20039;-77
2022/03/02 01:35:47;;;;;;;20.47;7.83;;;;;;;2.95;32.86;100503.59;5078473;28;20157;-79
2022/03/02 01:38:13;;;;;;;27.07;9.37;;;;;;;2.90;32.55;100500.38;5077966;28;20547;-81
2022/03/02 01:40:39;;;;;;;19.90;8.57;;;;;;;2.89;32.04;100509.19;5061167;28;20510;-79
2022/03/02 01:43:05;;;;;;;17.50;8.13;;;;;;;2.84;32.10;100505.97;5044893;28;20063;-79
2022/03/02 01:45:31;;;;;;;18.33;8.00;;;;;;;2.80;32.45;100502.69;5078669;28;20047;-79
2022/03/02 01:48:03;;;;;;;26.83;9.37;;;;;;;3.04;32.06;100500.44;5077362;28;20039;-79
2022/03/02 01:50:30;;;;;;;24.93;7.50;;;;;;;2.87;32.21;100501.41;5044097;28;20046;-75
2022/03/02 01:52:56;;;;;;;12.43;5.90;;;;;;;2.69;32.44;100494.56;5077229;28;20051;-77
2022/03/02 01:55:22;;;;;;;19.57;7.47;;;;;;;2.79;32.22;100489.66;5077260;28;20514;-77
2022/03/02 01:57:48;;;;;;;21.80;7.23;;;;;;;2.62;32.25;100461.78;5093512;28;20491;-75
2022/03/02 02:00:18;;;;;;;17.13;6.70;;;;;;;2.92;32.20;100482.78;5076785;28;20040;-80
2022/03/02 02:02:45;;;;;;;19.97;7.70;;;;;;;2.71;32.31;100484.84;5061175;28;20096;-80
2022/03/02 02:05:11;;;;;;;21.07;7.33;;;;;;;2.77;32.25;100468.75;5062502;28;20043;-79
2022/03/02 02:07:37;;;;;;;19.83;7.13;;;;;;;2.78;31.76;100480.09;5077524;28;20074;-78
2022/03/02 02:10:06;;;;;;;14.27;6.37;;;;;;;2.84;32.15;100482.38;5077609;28;20051;-77
2022/03/02 02:12:33;;;;;;;15.35;7.03;;;;;;;2.80;31.84;100478.22;5094419;28;20047;-77
2022/03/02 02:14:59;;;;;;;16.63;5.80;;;;;;;2.64;31.90;100470.41;5093147;28;20100;-76
2022/03/02 02:17:26;;;;;;;16.37;7.10;;;;;;;2.53;32.11;100440.47;5076630;28;20069;-77
2022/03/02 02:19:52;;;;;;;14.77;6.50;;;;;;;2.69;31.68;100470.16;5076567;28;20537;-78
2022/03/02 02:22:19;;;;;;;17.47;5.73;;;;;;;2.65;31.73;100463.38;5077449;28;20040;-78
2022/03/02 02:24:45;;;;;;;18.20;6.33;;;;;;;2.62;31.99;100435.56;5093527;28;20047;-77
2022/03/02 02:27:15;;;;;;;19.97;6.53;;;;;;;2.78;31.74;100432.91;5092642;28;20077;-77
2022/03/02 02:29:42;;;;;;;18.43;6.97;;;;;;;2.58;31.90;100441.94;5092970;28;20062;-77
2022/03/02 02:32:08;;;;;;;16.13;7.07;;;;;;;2.67;31.62;100443.16;5060228;28;20293;-77
2022/03/02 02:34:35;;;;;;;18.70;6.83;;;;;;;2.70;31.65;100446.47;5111666;28;20116;-77
2022/03/02 02:37:01;;;;;;;17.57;6.53;;;;;;;2.54;32.18;100444.78;5111041;28;20035;-77
2022/03/02 02:39:27;;;;;;;19.77;6.60;;;;;;;2.61;31.92;100447.00;5060178;28;20525;-77
2022/03/02 02:41:53;;;;;;;14.33;6.33;;;;;;;2.50;32.02;100444.13;5077205;28;20040;-78
2022/03/02 02:44:19;;;;;;;17.57;7.30;;;;;;;2.44;32.45;100441.88;5059922;28;20055;-78
2022/03/02 02:46:46;;;;;;;17.20;7.27;;;;;;;2.38;32.55;100444.00;5076641;28;20126;-77
2022/03/02 02:49:12;;;;;;;22.97;7.23;;;;;;;2.23;32.58;100434.38;5077634;28;20059;-76
2022/03/02 02:51:37;;;;;;;20.07;7.03;;;;;;;2.07;32.49;100402.94;5077160;28;20043;-80
2022/03/02 02:54:04;;;;;;;21.10;7.03;;;;;;;2.30;32.23;100433.94;5043646;28;20055;-79
2022/03/02 02:56:30;;;;;;;13.23;6.00;;;;;;;2.27;32.42;100430.63;5061185;28;20085;-80
2022/03/02 02:58:55;;;;;;;15.90;6.33;;;;;;;2.17;32.00;100432.94;5060038;28;20047;-77
2022/03/02 03:01:21;;;;;;;19.37;7.07;;;;;;;2.18;32.44;100431.16;5058026;28;20044;-78
2022/03/02 03:03:48;;;;;;;17.97;6.50;;;;;;;2.09;32.77;100429.06;5059057;28;20043;-77
2022/03/02 03:06:14;;;;;;;13.93;5.73;;;;;;;2.04;32.39;100421.47;5092830;28;20058;-69
2022/03/02 03:08:40;;;;;;;18.83;6.47;;;;;;;2.10;32.53;100422.88;5110853;28;20059;-72
2022/03/02 03:11:06;;;;;;;16.80;6.80;;;;;;;2.06;32.35;100431.84;5058424;28;20511;-71
2022/03/02 03:13:32;;;;;;;21.43;6.20;;;;;;;1.99;32.42;100426.09;5092098;28;20192;-72
2022/03/02 03:15:58;;;;;;;17.97;6.97;;;;;;;2.00;32.64;100427.78;5042219;28;20524;-75
2022/03/02 03:18:24;;;;;;;15.13;5.37;;;;;;;1.91;32.54;100403.91;5059232;28;20126;-72
2022/03/02 03:20:50;;;;;;;16.93;6.17;;;;;;;1.92;32.64;100408.19;5058715;28;20488;-71
2022/03/02 03:23:15;;;;;;;18.23;6.10;;;;;;;1.97;32.51;100411.41;5058440;28;20121;-68
2022/03/02 03:25:41;;;;;;;12.90;6.30;;;;;;;1.99;32.73;100405.16;5058675;28;20124;-69
2022/03/02 03:28:07;;;;;;;17.50;6.00;;;;;;;1.98;32.81;100408.72;5041742;28;20499;-69
2022/03/02 03:30:33;;;;;;;15.57;6.30;;;;;;;2.07;32.99;100407.34;5075213;28;20043;-72
2022/03/02 03:33:02;;;;;;;14.17;6.33;;;;;;;1.97;32.88;100401.75;5075659;28;20143;-77
2022/03/02 03:35:28;;;;;;;14.17;5.67;;;;;;;1.98;33.28;100398.22;5093527;28;20054;-75
2022/03/02 03:37:54;;;;;;;16.00;6.93;;;;;;;2.07;33.22;100399.47;5075482;28;20093;-76
2022/03/02 03:40:21;;;;;;;15.87;6.37;;;;;;;2.04;33.28;100400.50;5076477;28;20608;-69
2022/03/02 03:42:49;;;;;;;13.67;6.23;;;;;;;2.13;33.11;100397.34;5079169;28;20117;-69
2022/03/02 03:45:15;;;;;;;18.67;7.00;;;;;;;2.04;33.13;100391.78;5078618;28;20040;-71
2022/03/02 03:47:42;;;;;;;18.93;6.83;;;;;;;2.05;33.45;100394.31;5078471;28;20043;-71
2022/03/02 03:50:08;;;;;;;16.93;6.40;;;;;;;2.00;33.02;100385.03;5062071;28;20081;-72
2022/03/02 03:52:35;;;;;;;17.13;6.93;;;;;;;1.90;33.31;100384.72;5060524;28;20562;-72
2022/03/02 03:55:01;;;;;;;13.37;5.97;;;;;;;1.67;33.32;100357.19;5093323;28;20058;-71
2022/03/02 03:57:26;;;;;;;14.83;6.40;;;;;;;1.74;33.44;100383.84;5076279;28;20070;-72
2022/03/02 04:00:00;;;;;;;15.97;6.97;;;;;;;1.73;33.84;100377.78;5077885;28;20046;-71
2022/03/02 04:02:25;;;;;;;18.90;6.53;;;;;;;1.80;33.91;100390.53;5058798;28;20035;-72
2022/03/02 04:04:51;;;;;;;16.03;6.53;;;;;;;1.72;33.92;100393.59;5059557;28;20435;-72
2022/03/02 04:07:17;;;;;;;14.53;6.33;;;;;;;1.68;34.14;100389.44;5059164;28;20043;-72
2022/03/02 04:09:43;;;;;;;17.27;6.20;;;;;;;1.57;34.05;100376.94;5077553;28;20055;-72
2022/03/02 04:12:09;;;;;;;18.07;6.80;;;;;;;1.61;34.12;100401.19;5045604;28;20134;-72
2022/03/02 04:14:34;;;;;;;18.03;7.13;;;;;;;1.62;34.09;100392.38;5061492;28;20127;-73
2022/03/02 04:17:00;;;;;;;21.27;6.53;;;;;;;1.64;33.55;100390.53;5061644;28;20043;-72
2022/03/02 04:19:26;;;;;;;17.97;6.03;;;;;;;1.54;33.67;100381.47;5078747;28;20050;-72
2022/03/02 04:21:52;;;;;;;12.23;5.90;;;;;;;1.61;33.24;100393.31;5078912;28;20134;-72
2022/03/02 04:24:17;;;;;;;15.27;5.93;;;;;;;1.49;33.65;100380.91;5062065;28;20055;-76
2022/03/02 04:26:45;;;;;;;14.07;5.83;;;;;;;1.50;33.47;100395.69;5061666;28;20495;-71
2022/03/02 04:29:11;;;;;;;16.53;5.43;;;;;;;1.46;33.57;100396.78;5062067;28;20507;-70
2022/03/02 04:31:37;;;;;;;16.67;5.50;;;;;;;1.35;33.84;100397.34;5061424;28;20063;-72
2022/03/02 04:34:03;;;;;;;12.37;5.00;;;;;;;1.28;34.02;100393.38;5061382;28;20519;-73
2022/03/02 04:36:28;;;;;;;14.80;5.80;;;;;;;1.23;33.81;100387.53;5045093;28;20413;-70
2022/03/02 04:38:54;;;;;;;12.97;5.67;;;;;;;1.25;33.66;100387.44;5060332;28;20044;-70
2022/03/02 04:41:20;;;;;;;13.07;5.77;;;;;;;1.30;33.82;100390.66;5094262;28;20055;-71
2022/03/02 04:43:46;;;;;;;18.03;6.20;;;;;;;1.32;33.58;100387.03;5094279;28;20081;-72
2022/03/02 04:46:11;;;;;;;15.50;6.40;;;;;;;1.38;34.02;100386.69;5060559;28;20045;-69
2022/03/02 04:48:37;;;;;;;15.23;5.67;;;;;;;1.37;33.93;100394.63;5041773;28;20044;-72
2022/03/02 04:51:04;;;;;;;15.20;6.57;;;;;;;1.39;34.03;100395.41;5057038;28;20036;-72
2022/03/02 04:53:29;;;;;;;11.43;5.13;;;;;;;1.38;33.64;100388.50;5023359;28;20410;-71
2022/03/02 04:55:55;;;;;;;16.00;5.60;;;;;;;1.33;33.96;100378.28;5057310;28;20052;-71
2022/03/02 04:58:21;;;;;;;16.47;5.83;;;;;;;1.44;33.73;100367.22;5039989;28;20484;-70
2022/03/02 05:00:47;;;;;;;13.00;5.50;;;;;;;1.51;33.91;100371.19;5057021;28;20044;-70
2022/03/02 05:03:14;;;;;;;15.90;6.17;;;;;;;1.57;33.72;100373.47;5056536;28;20052;-69
2022/03/02 05:05:39;;;;;;;20.20;6.30;;;;;;;1.70;33.39;100372.72;5056351;28;20047;-70
2022/03/02 05:08:06;;;;;;;18.57;7.23;;;;;;;1.99;33.41;100371.09;5040465;28;20052;-71
2022/03/02 05:10:33;;;;;;;13.77;6.37;;;;;;;1.95;32.98;100369.59;5093142;28;20047;-71
2022/03/02 05:13:01;;;;;;;16.40;6.20;;;;;;;1.73;33.19;100342.91;5058561;28;20087;-68
2022/03/02 05:15:27;;;;;;;15.23;6.03;;;;;;;1.97;33.01;100366.88;5059364;28;20039;-68
2022/03/02 05:17:53;;;;;;;21.40;6.80;;;;;;;2.01;32.47;100373.63;5075809;28;20043;-72
2022/03/02 05:20:20;;;;;;;14.63;5.73;;;;;;;2.01;32.98;100366.63;5060634;28;20499;-71
2022/03/02 05:22:47;;;;;;;14.97;6.50;;;;;;;1.95;33.14;100361.72;5093855;28;20073;-69
2022/03/02 05:25:13;;;;;;;13.97;5.97;;;;;;;1.78;32.75;100328.59;5060321;28;20455;-70
2022/03/02 05:27:40;;;;;;;13.80;6.10;;;;;;;2.03;33.00;100358.69;5059859;28;20046;-70
2022/03/02 05:30:07;;;;;;;20.07;7.33;;;;;;;2.08;32.68;100360.09;5059724;28;20036;-69
2022/03/02 05:32:33;;;;;;;29.80;7.97;;;;;;;2.03;32.80;100363.91;5076408;28;20085;-67
2022/03/02 05:34:59;;;;;;;26.23;7.33;;;;;;;2.10;32.66;100366.09;5060032;28;20138;-67
2022/03/02 05:37:24;;;;;;;17.50;6.97;;;;;;;2.10;33.68;100360.84;5076163;28;20051;-69
2022/03/02 05:39:50;;;;;;;17.70;6.60;;;;;;;2.23;33.14;100367.06;5059643;28;20050;-68
2022/03/02 05:42:16;;;;;;;19.47;7.23;;;;;;;2.05;33.08;100320.97;5075964;28;20050;-69
2022/03/02 05:44:44;;;;;;;17.87;7.90;;;;;;;2.32;33.18;100356.03;5076215;28;20119;-69
2022/03/02 05:47:10;;;;;;;19.83;7.60;;;;;;;2.37;32.56;100345.31;5055814;28;20510;-68
2022/03/02 05:49:39;;;;;;;20.70;7.77;;;;;;;2.45;33.01;100350.94;5041192;28;20128;-68
2022/03/02 05:52:06;;;;;;;21.80;8.00;;;;;;;2.40;33.48;100345.97;5078465;28;20047;-69
2022/03/02 05:54:31;;;;;;;32.07;9.70;;;;;;;2.41;33.79;100342.44;5056198;28;20373;-68
2022/03/02 05:56:57;;;;;;;27.83;8.93;;;;;;;2.60;33.34;100345.63;5055669;28;20036;-68
2022/03/02 05:59:23;;;;;;;29.60;9.00;;;;;;;2.66;33.49;100333.97;5055056;28;20044;-68
2022/03/02 06:01:49;;;;;;;21.63;8.53;;;;;;;2.83;33.43;100346.91;5056063;28;20044;-68
2022/03/02 06:04:15;;;;;;;27.17;9.20;;;;;;;2.90;33.14;100338.56;5055763;28;20526;-68
2022/03/02 06:06:41;;;;;;;20.83;8.53;;;;;;;3.08;33.00;100333.97;5055793;28;20420;-68
2022/03/02 06:09:08;;;;;;;35.57;9.23;;;;;;;3.24;32.93;100338.16;5039220;28;20048;-68
2022/03/02 06:11:36;;;;;;;23.73;8.27;;;;;;;3.36;32.79;100331.34;5054863;28;20032;-68
2022/03/02 06:14:03;;;;;;;33.83;9.40;;;;;;;3.37;32.59;100325.13;5071980;28;20044;-67
2022/03/02 06:16:29;;;;;;;26.53;9.37;;;;;;;3.42;32.74;100331.78;5095578;28;20047;-68
2022/03/02 06:18:55;;;;;;;25.30;9.40;;;;;;;3.58;32.50;100333.44;5055364;28;20142;-68
2022/03/02 06:21:26;;;;;;;22.77;9.63;;;;;;;3.91;32.07;100323.38;5053701;28;20050;-69
2022/03/02 06:23:53;;;;;;;26.07;10.27;;;;;;;3.82;31.76;100329.25;5092255;28;20054;-68
2022/03/02 06:26:22;;;;;;;37.67;10.50;;;;;;;4.06;31.35;100332.94;5042181;28;20089;-69
2022/03/02 06:28:49;;;;;;;27.40;10.70;;;;;;;4.23;30.84;100322.16;5041327;28;20040;-69
2022/03/02 06:31:15;;;;;;;26.27;9.57;;;;;;;4.47;31.02;100333.66;5081210;28;20039;-69
2022/03/02 06:33:41;;;;;;;23.77;9.93;;;;;;;4.62;30.63;100330.00;5046304;28;20126;-73
2022/03/02 06:36:07;;;;;;;28.50;9.67;;;;;;;4.66;30.19;100323.56;5066156;28;20040;-70
2022/03/02 06:38:33;;;;;;;33.87;11.30;;;;;;;4.77;31.04;100326.31;5058654;28;20537;-70
2022/03/02 06:41:03;;;;;;;41.77;11.70;;;;;;;4.83;30.80;100320.63;5067003;28;20101;-76
2022/03/02 06:43:33;;;;;;;46.23;14.80;;;;;;;4.94;30.55;100299.66;5039373;28;20043;-71
2022/03/02 06:46:05;;;;;;;55.17;16.80;;;;;;;5.18;30.20;100327.75;5064012;28;20090;-69
2022/03/02 06:48:43;;;;;;;48.97;16.37;;;;;;;5.27;30.02;100309.63;5044820;28;20062;-71
2022/03/02 06:51:12;;;;;;;44.30;12.33;;;;;;;5.58;29.57;100317.88;5084582;28;20040;-71
2022/03/02 06:53:40;;;;;;;32.80;10.97;;;;;;;5.72;28.93;100324.81;5081303;28;20047;-70
2022/03/02 06:56:07;;;;;;;26.70;10.07;;;;;;;5.84;28.93;100311.63;5038882;28;20085;-70
2022/03/02 06:58:51;;;;;;;26.03;10.70;;;;;;;6.21;28.63;100318.47;5075707;28;20461;-71
2022/03/02 07:01:36;;;;;;;34.90;10.57;;;;;;;6.24;28.38;100315.63;5076133;28;20043;-72
2022/03/02 07:04:03;;;;;;;28.27;9.77;;;;;;;5.98;28.26;100307.97;5059342;28;20032;-74
2022/03/02 07:06:30;;;;;;;33.10;11.37;;;;;;;6.27;28.45;100315.38;5039183;28;20142;-70
2022/03/02 07:08:56;;;;;;;36.50;11.90;;;;;;;6.26;28.33;100316.34;5033453;28;20075;-70
2022/03/02 07:11:22;;;;;;;36.53;12.60;;;;;;;6.44;28.29;100317.59;5062307;28;20028;-70
2022/03/02 07:13:49;;;;;;;40.30;13.57;;;;;;;6.57;27.89;100312.25;5063718;28;20625;-71
2022/03/02 07:16:17;;;;;;;39.30;13.30;;;;;;;6.78;27.88;100311.44;5066778;28;20058;-69
2022/03/02 07:18:43;;;;;;;36.43;13.37;;;;;;;6.84;27.20;100310.97;5073186;28;20104;-69
2022/03/02 07:21:14;;;;;;;29.17;10.67;;;;;;;7.23;26.58;100314.09;5112835;28;20043;-70
2022/03/02 07:24:05;;;;;;;22.70;9.27;;;;;;;7.83;25.42;100312.72;5061421;28;20528;-69
2022/03/02 07:26:32;;;;;;;24.17;9.75;;;;;;;9.33;23.91;100303.47;5095617;28;20063;-70
2022/03/02 07:29:00;;;;;;;34.45;9.63;;;;;;;12.65;20.46;100311.53;5062681;28;20392;-71
2022/03/02 07:31:26;;;;;;;22.80;8.90;;;;;;;15.72;17.19;100304.75;5061629;28;20081;-71
2022/03/02 07:33:53;;;;;;;22.55;10.18;;;;;;;18.74;14.58;100298.31;5062132;28;20035;-71
2022/03/02 07:36:20;;;;;;;32.58;10.48;;;;;;;21.22;12.32;100291.97;5060475;28;20051;-71
2022/03/02 07:38:46;;;;;;;32.28;11.15;;;;;;;23.48;10.94;100294.59;5060166;28;20043;-72
2022/03/02 07:41:13;;;;;;;40.97;11.40;;;;;;;25.22;9.27;100294.19;5043998;28;20499;-72
2022/03/02 07:43:39;;;;;;;35.13;12.40;;;;;;;26.79;8.34;100289.81;5044246;28;20067;-72
2022/03/02 07:46:07;;;;;;;31.75;12.52;;;;;;;28.14;7.11;100288.19;5061278;28;20539;-72
2022/03/02 07:48:34;;;;;;;41.95;14.40;;;;;;;28.65;6.77;100290.38;5078529;28;20048;-72
2022/03/02 07:51:01;;;;;;;34.33;14.40;;;;;;;29.82;6.30;100274.50;5061125;28;20103;-72
2022/03/02 07:53:32;;;;;;;49.47;14.55;;;;;;;30.82;5.59;100279.41;5112587;28;20051;-73
2022/03/02 07:55:59;;;;;;;38.05;15.13;;;;;;;31.28;5.30;100270.03;5061964;28;20043;-72
2022/03/02 07:58:27;;;;;;;35.13;15.40;;;;;;;31.72;5.00;100276.50;5078177;28;20047;-72
2022/03/02 08:00:53;;;;;;;52.20;15.15;;;;;;;32.09;4.80;100268.66;5094295;28;20139;-72
2022/03/02 08:03:23;;;;;;;46.67;14.60;;;;;;;32.56;4.26;100265.38;5077950;28;20044;-72
2022/03/02 08:05:48;;;;;;;40.77;14.80;;;;;;;32.54;4.56;100265.66;5077646;28;20043;-73
2022/03/02 08:08:14;;;;;;;42.17;14.32;;;;;;;32.83;4.39;100242.88;5044554;28;20059;-73
2022/03/02 08:10:42;;;;;;;38.60;14.35;;;;;;;32.78;4.40;100251.16;5060860;28;20073;-73
2022/03/02 08:13:11;;;;;;;40.50;15.25;;;;;;;32.62;4.33;100245.78;5044572;28;20066;-73
2022/03/02 08:15:37;;;;;;;32.97;13.40;;;;;;;32.48;4.19;100221.97;5044314;28;20559;-73
2022/03/02 08:18:03;;;;;;;35.25;14.55;;;;;;;32.86;3.74;100234.03;5069671;28;20126;-73
2022/03/02 08:20:29;;;;;;;41.92;14.75;;;;;;;33.37;3.99;100230.47;5048498;28;20138;-74
2022/03/02 08:22:56;;;;;;;42.97;13.77;;;;;;;34.16;3.49;100232.53;5060193;28;20085;-73
2022/03/02 08:25:25;;;;;;;46.72;13.35;;;;;;;34.62;3.20;100211.41;5093931;28;20047;-73
2022/03/02 08:27:53;;;;;;;36.85;13.40;;;;;;;35.58;3.07;100227.03;5043644;28;20498;-73
2022/03/02 08:30:19;;;;;;;34.95;12.30;;;;;;;36.32;2.49;100209.88;5094115;28;20100;-74
2022/03/02 08:32:46;;;;;;;39.85;13.07;;;;;;;36.90;2.34;100210.66;5043878;28;20449;-75
2022/03/02 08:35:13;;;;;;;36.05;12.52;;;;;;;37.28;2.43;100207.41;5077408;28;20044;-74
2022/03/02 08:37:40;;;;;;;36.97;13.93;;;;;;;37.57;2.31;100199.34;5060582;28;20085;-72
2022/03/02 08:40:08;;;;;;;35.35;13.13;;;;;;;37.60;2.21;100199.53;5077636;28;20070;-72
2022/03/02 08:42:34;;;;;;;41.55;12.13;;;;;;;37.82;1.77;100191.13;5059995;28;20083;-72
2022/03/02 08:45:02;;;;;;;27.48;11.13;;;;;;;37.73;1.90;100192.25;5060133;28;20047;-71
2022/03/02 08:47:31;;;;;;;25.25;10.50;;;;;;;37.72;1.96;100180.34;5060210;28;20104;-72
2022/03/02 08:49:57;;;;;;;30.35;10.23;;;;;;;37.54;1.88;100178.66;5060245;28;20044;-70
2022/03/02 08:52:28;;;;;;;49.45;11.50;;;;;;;38.18;2.11;100169.47;5059570;28;20059;-71
2022/03/02 08:54:57;;;;;;;50.55;12.00;;;;;;;38.43;1.98;100165.03;5076707;28;20586;-71
2022/03/02 08:57:24;;;;;;;37.70;11.35;;;;;;;38.62;1.89;100148.84;5036873;28;20051;-71
2022/03/02 08:59:53;;;;;;;38.35;10.98;;;;;;;38.62;1.85;100151.63;5073558;28;20119;-71
2022/03/02 09:02:22;;;;;;;32.03;10.88;;;;;;;38.63;1.56;100156.84;5056650;28;20071;-71
2022/03/02 09:04:48;;;;;;;39.92;12.23;;;;;;;39.14;1.55;100146.72;5040253;28;20047;-72
2022/03/02 09:07:17;;;;;;;32.63;10.18;;;;;;;39.79;1.39;100163.69;5056716;28;20055;-72
2022/03/02 09:09:46;;;;;;;28.50;9.68;;;;;;;39.82;1.55;100152.69;5069745;28;20056;-73
2022/03/02 09:12:14;;;;;;;32.50;9.98;;;;;;;39.88;1.05;100145.81;5018663;28;20101;-73
2022/03/02 09:14:39;;;;;;;34.22;10.60;;;;;;;39.56;1.25;100146.50;5069417;28;20044;-72
2022/03/02 09:17:05;;;;;;;40.22;9.27;;;;;;;39.74;1.13;100148.00;5019224;28;20511;-73
2022/03/02 09:19:32;;;;;;;26.92;9.40;;;;;;;39.72;1.58;100143.94;5036152;28;20040;-72
2022/03/02 09:21:59;;;;;;;25.92;9.13;;;;;;;39.86;1.10;100147.28;5023375;28;20048;-72
2022/03/02 09:24:29;;;;;;;28.75;8.82;;;;;;;40.12;1.22;100133.97;5052255;28;20040;-73
2022/03/02 09:26:57;;;;;;;24.88;8.18;;;;;;;40.38;1.18;100133.75;5038572;28;20040;-72
2022/03/02 09:29:30;;;;;;;26.38;7.90;;;;;;;40.85;0.59;100119.16;5035693;28;20041;-71
2022/03/02 09:31:57;;;;;;;36.00;7.82;;;;;;;40.76;0.96;100123.19;5035732;28;20044;-72
2022/03/02 09:34:29;;;;;;;29.42;8.75;;;;;;;40.93;0.85;100123.81;5068228;28;20056;-72
2022/03/02 09:36:56;;;;;;;26.63;8.75;;;;;;;40.54;0.94;100118.00;5035467;28;20473;-71
2022/03/02 09:39:23;;;;;;;35.25;8.35;;;;;;;40.06;1.14;100113.06;5084948;28;20051;-71
2022/03/02 09:41:55;;;;;;;22.33;7.88;;;;;;;39.90;1.30;100103.72;5053828;28;20051;-70
2022/03/02 09:44:25;;;;;;;27.90;8.45;;;;;;;40.52;1.24;100104.41;5038174;28;20048;-72
2022/03/02 09:46:56;;;;;;;19.30;8.48;;;;;;;40.88;0.84;100086.97;5072085;28;20052;-72
2022/03/02 09:49:24;;;;;;;21.02;8.43;;;;;;;41.06;0.68;100091.97;5071996;28;20036;-72
2022/03/02 09:51:59;;;;;;;20.35;8.43;;;;;;;40.74;1.13;100092.06;5089198;28;20047;-71
2022/03/02 09:54:25;;;;;;;26.42;7.75;;;;;;;41.09;0.88;100090.50;5054882;28;20040;-72
2022/03/02 09:56:52;;;;;;;20.05;6.00;;;;;;;41.59;0.81;100080.56;5071721;28;20049;-72
2022/03/02 09:59:20;;;;;;;18.85;6.25;;;;;;;41.59;0.91;100082.53;5055553;28;20113;-72
2022/03/02 10:01:48;;;;;;;15.47;6.40;;;;;;;41.62;0.88;100065.91;5055572;28;20120;-72
2022/03/02 10:04:21;;;;;;;28.63;6.65;;;;;;;41.76;0.58;100071.09;5055162;28;20044;-72
2022/03/02 10:07:26;;;;;;;17.73;5.40;;;;;;;41.15;0.89;100062.03;5071788;28;20105;-72
2022/03/02 10:09:44;;;;;;;22.95;6.68;;;;;;;41.31;0.45;100062.94;5058122;28;20522;-72
2022/03/02 10:12:10;;;;;;;14.65;5.25;;;;;;;41.41;0.79;100056.84;5054549;28;20044;-72
2022/03/02 10:14:36;;;;;;;16.52;5.13;;;;;;;41.56;0.70;100056.19;5087935;28;20044;-71
2022/03/02 10:17:02;;;;;;;18.70;4.70;;;;;;;41.80;0.46;100046.09;5054625;28;20063;-72
2022/03/02 10:19:30;;;;;;;14.45;4.68;;;;;;;42.18;0.43;100049.19;5054283;28;20092;-71
2022/03/02 10:22:09;;;;;;;18.48;6.80;;;;;;;41.72;0.33;100047.84;5087160;28;20396;-69
2022/03/02 10:24:44;;;;;;;17.42;4.18;;;;;;;41.40;0.46;100044.09;5049551;28;20075;-69
2022/03/02 10:30:54;;;;;;;13.60;5.57;;;;;;;42.06;0.59;100035.28;5055426;28;20501;-71
2022/03/02 10:33:22;;;;;;;14.15;4.40;;;;;;;42.04;0.52;100023.66;5079611;28;20094;-70
2022/03/02 10:36:06;;;;;;;13.85;4.63;;;;;;;42.52;0.26;100042.94;5039143;28;20497;-73
2022/03/02 10:38:38;;;;;;;14.65;4.57;;;;;;;43.13;0.17;100041.31;5017491;28;20040;-71
2022/03/02 10:41:07;;;;;;;16.23;4.65;;;;;;;42.96;0.00;100036.06;5045351;28;20041;-72
2022/03/02 10:43:40;;;;;;;13.57;4.97;;;;;;;42.89;0.03;100022.72;5034396;28;20067;-72
2022/03/02 10:46:08;;;;;;;8.77;3.85;;;;;;;42.74;0.02;100026.38;5034711;28;20048;-72
2022/03/02 10:48:44;;;;;;;11.95;4.00;;;;;;;42.49;0.08;100024.06;5067801;28;20047;-72
2022/03/02 10:51:11;;;;;;;9.38;3.85;;;;;;;42.08;0.25;100018.97;5019537;28;20036;-72
2022/03/02 10:53:40;;;;;;;11.25;3.60;;;;;;;41.99;0.30;100007.16;5022384;28;20051;-71
2022/03/02 10:56:08;;;;;;;11.82;4.00;;;;;;;41.76;0.56;100013.28;5055910;28;20040;-72
2022/03/02 10:58:35;;;;;;;21.65;4.10;;;;;;;41.45;0.37;100006.78;5038376;28;20052;-72
2022/03/02 11:01:02;;;;;;;13.32;4.10;;;;;;;41.37;0.22;100008.53;5022415;28;20048;-70
2022/03/02 11:03:34;;;;;;;13.63;4.10;;;;;;;41.17;0.34;100000.34;5055432;28;20040;-71
2022/03/02 11:06:03;;;;;;;11.25;5.80;;;;;;;40.96;0.35;99991.28;5038654;28;20420;-69
2022/03/02 11:08:29;;;;;;;9.77;4.50;;;;;;;40.86;0.28;99973.06;5063401;28;20052;-72
2022/03/02 11:10:56;;;;;;;7.90;3.42;;;;;;;40.71;0.32;99984.94;5037607;28;20043;-70
2022/03/02 11:13:26;;;;;;;9.90;3.78;;;;;;;40.64;0.56;99981.91;5073725;28;20043;-72
2022/03/02 11:15:58;;;;;;;8.10;3.28;;;;;;;40.30;0.71;99976.78;5074828;28;20543;-71
2022/03/02 11:18:42;;;;;;;11.48;3.38;;;;;;;40.12;0.38;99978.09;5091051;28;20044;-71
2022/03/02 11:21:14;;;;;;;8.50;3.10;;;;;;;39.63;0.45;99981.88;5058411;28;20083;-72
2022/03/02 11:23:49;;;;;;;8.70;3.28;;;;;;;38.70;0.79;99973.84;5075174;28;20131;-69
2022/03/02 11:26:18;;;;;;;9.70;3.90;;;;;;;36.61;1.36;99971.41;5066000;28;20048;-71
2022/03/02 11:28:46;;;;;;;14.98;4.03;;;;;;;35.70;1.75;99970.25;5030417;28;20044;-71